Time,TemperatureF,DewpointF,PressureIn,WindDirection,WindDirectionDegrees,WindSpeedMPH,WindSpeedGustMPH,Humidity,HourlyPrecipIn,Conditions,Clouds,dailyrainin,SoftwareType,DateUTC
2017-02-22 00:00:00,49.9,47.4,30.16,ENE,70,3.0,3.0,91,0.00,,,0.01,Wunderground v.1.15,2017-02-22 08:00:00,
2017-02-22 00:10:00,49.8,47.3,30.17,SE,125,3.0,3.0,91,0.00,,,0.00,Wunderground v.1.15,2017-02-22 08:10:00,
2017-02-22 00:20:00,49.9,47.4,30.17,East,95,3.0,3.0,91,0.00,,,0.00,Wunderground v.1.15,2017-02-22 08:20:00,
2017-02-22 00:30:00,49.9,47.4,30.17,East,84,3.0,3.0,91,0.00,,,0.00,Wunderground v.1.15,2017-02-22 08:30:00,
2017-02-22 00:35:00,50.0,47.5,30.17,East,90,3.0,3.0,91,0.00,,,0.00,Wunderground v.1.15,2017-02-22 08:35:00,
2017-02-22 00:45:00,50.1,47.3,30.17,East,81,3.0,4.0,90,0.00,,,0.00,Wunderground v.1.15,2017-02-22 08:45:00,
2017-02-22 00:55:00,50.0,47.2,30.17,SSE,150,2.0,3.0,90,0.00,,,0.00,Wunderground v.1.15,2017-02-22 08:55:00,
2017-02-22 01:05:00,49.7,46.9,30.17,SSE,163,0.0,2.0,90,0.00,,,0.00,Wunderground v.1.15,2017-02-22 09:05:00,
2017-02-22 01:15:00,49.5,47.0,30.17,South,176,1.0,2.0,91,0.00,,,0.00,Wunderground v.1.15,2017-02-22 09:15:00,
2017-02-22 01:25:00,49.4,46.9,30.17,ENE,72,1.0,2.0,91,0.00,,,0.00,Wunderground v.1.15,2017-02-22 09:25:00,
2017-02-22 01:35:00,49.3,46.8,30.18,NE,42,1.0,2.0,91,0.00,,,0.00,Wunderground v.1.15,2017-02-22 09:35:00,
2017-02-22 01:45:00,48.4,41.2,30.18,NNE,26,4.0,6.0,76,0.00,,,0.00,Wunderground v.1.15,2017-02-22 09:45:00,
2017-02-22 01:55:00,48.4,40.8,30.18,NE,42,5.0,5.0,75,0.00,,,0.00,Wunderground v.1.15,2017-02-22 09:55:00,
2017-02-22 02:05:00,48.2,40.3,30.18,ENE,65,5.0,5.0,74,0.00,,,0.00,Wunderground v.1.15,2017-02-22 10:05:00,
2017-02-22 02:10:00,47.8,39.9,30.18,ENE,61,5.0,5.0,74,0.00,,,0.00,Wunderground v.1.15,2017-02-22 10:10:00,
2017-02-22 02:20:00,47.2,39.7,30.18,ENE,72,3.0,6.0,75,0.00,,,0.00,Wunderground v.1.15,2017-02-22 10:20:00,
2017-02-22 02:30:00,46.4,39.9,30.18,NE,54,4.0,4.0,78,0.00,,,0.00,Wunderground v.1.15,2017-02-22 10:30:00,
2017-02-22 02:40:00,45.9,40.4,30.18,ENE,69,3.0,3.0,81,0.00,,,0.00,Wunderground v.1.15,2017-02-22 10:40:00,
2017-02-22 02:50:00,45.4,40.5,30.19,ENE,62,3.0,3.0,83,0.00,,,0.00,Wunderground v.1.15,2017-02-22 10:50:00,
2017-02-22 03:00:00,45.2,40.3,30.19,ENE,61,3.0,3.0,83,0.00,,,0.00,Wunderground v.1.15,2017-02-22 11:00:00,
2017-02-22 03:10:00,45.2,40.3,30.19,NE,51,3.0,3.0,83,0.00,,,0.00,Wunderground v.1.15,2017-02-22 11:10:00,
2017-02-22 03:15:00,45.1,40.6,30.20,NNW,331,3.0,3.0,84,0.00,,,0.00,Wunderground v.1.15,2017-02-22 11:15:00,
2017-02-22 03:25:00,45.0,40.5,30.20,NNW,331,0.0,2.0,84,0.00,,,0.00,Wunderground v.1.15,2017-02-22 11:25:00,
2017-02-22 03:45:00,43.9,40.0,30.20,NNW,331,0.0,0.0,86,0.00,,,0.00,Wunderground v.1.15,2017-02-22 11:45:00,
2017-02-22 03:55:00,43.1,39.5,30.20,NNW,331,0.0,0.0,87,0.00,,,0.00,Wunderground v.1.15,2017-02-22 11:55:00,
2017-02-22 04:05:00,42.1,38.8,30.20,NNW,332,1.0,1.0,88,0.00,,,0.00,Wunderground v.1.15,2017-02-22 12:05:00,
2017-02-22 04:15:00,41.5,38.8,30.20,NNW,332,0.0,1.0,90,0.00,,,0.00,Wunderground v.1.15,2017-02-22 12:15:00,
2017-02-22 04:25:00,41.1,38.7,30.20,NNW,332,0.0,0.0,91,0.00,,,0.00,Wunderground v.1.15,2017-02-22 12:25:00,
2017-02-22 04:35:00,40.7,38.3,30.20,NNW,332,0.0,1.0,91,0.00,,,0.00,Wunderground v.1.15,2017-02-22 12:35:00,
2017-02-22 04:40:00,40.7,38.6,30.20,ENE,69,1.0,2.0,92,0.00,,,0.00,Wunderground v.1.15,2017-02-22 12:40:00,
2017-02-22 04:50:00,40.5,38.4,30.19,ENE,69,1.0,1.0,92,0.00,,,0.00,Wunderground v.1.15,2017-02-22 12:50:00,
2017-02-22 05:00:00,40.4,38.3,30.20,ENE,69,1.0,1.0,92,0.00,,,0.00,Wunderground v.1.15,2017-02-22 13:00:00,
2017-02-22 05:10:00,40.4,38.3,30.19,ENE,69,1.0,1.0,92,0.00,,,0.00,Wunderground v.1.15,2017-02-22 13:10:00,
2017-02-22 05:20:00,40.1,37.7,30.19,ENE,69,0.0,0.0,91,0.00,,,0.00,Wunderground v.1.15,2017-02-22 13:20:00,
2017-02-22 05:30:00,39.8,37.7,30.19,ENE,69,0.0,0.0,92,0.00,,,0.00,Wunderground v.1.15,2017-02-22 13:30:00,
2017-02-22 05:40:00,39.5,37.4,30.20,ENE,69,0.0,1.0,92,0.00,,,0.00,Wunderground v.1.15,2017-02-22 13:40:00,
2017-02-22 05:45:00,39.3,37.2,30.19,ENE,69,0.0,1.0,92,0.00,,,0.00,Wunderground v.1.15,2017-02-22 13:45:00,
2017-02-22 05:55:00,38.6,36.5,30.20,ENE,69,0.0,0.0,92,0.00,,,0.00,Wunderground v.1.15,2017-02-22 13:55:00,
2017-02-22 06:05:00,38.1,36.3,30.20,ENE,69,0.0,1.0,93,0.00,,,0.00,Wunderground v.1.15,2017-02-22 14:05:00,
2017-02-22 06:15:00,37.8,36.0,30.20,ENE,69,0.0,0.0,93,0.00,,,0.00,Wunderground v.1.15,2017-02-22 14:15:00,
2017-02-22 06:25:00,37.2,35.4,30.20,ENE,69,0.0,0.0,93,0.00,,,0.00,Wunderground v.1.15,2017-02-22 14:25:00,
2017-02-22 06:35:00,36.8,35.0,30.20,ENE,69,0.0,0.0,93,0.00,,,0.00,Wunderground v.1.15,2017-02-22 14:35:00,
2017-02-22 06:45:00,36.5,34.9,30.20,South,171,0.0,2.0,94,0.00,,,0.00,Wunderground v.1.15,2017-02-22 14:45:00,
2017-02-22 06:50:00,36.5,34.9,30.20,South,171,0.0,0.0,94,0.00,,,0.00,Wunderground v.1.15,2017-02-22 14:50:00,
2017-02-22 07:00:00,36.4,34.8,30.21,South,171,0.0,0.0,94,0.00,,,0.00,Wunderground v.1.15,2017-02-22 15:00:00,
2017-02-22 07:05:00,36.6,35.3,30.21,South,172,1.0,1.0,95,0.00,,,0.00,Wunderground v.1.15,2017-02-22 15:05:00,
2017-02-22 07:15:00,37.1,35.8,30.21,South,172,1.0,2.0,95,0.00,,,0.00,Wunderground v.1.15,2017-02-22 15:15:00,
2017-02-22 07:25:00,37.4,36.1,30.21,South,172,0.0,0.0,95,0.00,,,0.00,Wunderground v.1.15,2017-02-22 15:25:00,
2017-02-22 07:30:00,37.4,36.1,30.22,South,172,0.0,0.0,95,0.00,,,0.00,Wunderground v.1.15,2017-02-22 15:30:00,
2017-02-22 07:40:00,37.3,36.0,30.22,South,171,0.0,1.0,95,0.00,,,0.00,Wunderground v.1.15,2017-02-22 15:40:00,
2017-02-22 07:50:00,38.3,37.3,30.23,South,171,0.0,1.0,96,0.00,,,0.00,Wunderground v.1.15,2017-02-22 15:50:00,
2017-02-22 08:00:00,39.9,38.9,30.23,South,171,0.0,0.0,96,0.00,,,0.00,Wunderground v.1.15,2017-02-22 16:00:00,
2017-02-22 08:10:00,41.8,39.9,30.23,South,171,0.0,0.0,93,0.00,,,0.00,Wunderground v.1.15,2017-02-22 16:10:00,
2017-02-22 08:20:00,42.5,39.8,30.23,SSW,209,1.0,1.0,90,0.00,,,0.00,Wunderground v.1.15,2017-02-22 16:20:00,
2017-02-22 08:30:00,42.9,39.9,30.23,SSW,209,1.0,1.0,89,0.00,,,0.00,Wunderground v.1.15,2017-02-22 16:30:00,